67.7°F
Current conditions from King Hill
Updated every 5 minutes
 
  Sunday August 31, 2014

Station Historical Data
Daily Summary for July 28, 2011 Units:  English    Metric   Both
« Previous Day
Next Day »
Daily Weekly Monthly Yearly Custom
  High: Low: Average:
Temperature: 84.4 °F 53.4 °F 68.8 °F
Dew Point: 67.7 °F 52.3 °F 58.7 °F
Humidity: 97% 38% 73%
Wind Speed: 4.0mph 0.0mph 1.4mph
Wind Gust: 9.0mph - -
Wind- - SW
Pressure: 30.03 in 29.91 in -
Precipitation: 0.00 in    
Historical Graphs
 
 
Tabular Data for July 28, 2011
Time Temperature Dew Point Pressure Wind Wind Speed Wind Gust Humidity Daily Rainfall
00:00 56.1 °F 54.4 °F 29.97 in Calm     94% 0.00 in
00:05 55.9 °F 54.2 °F 29.97 in Calm     94% 0.00 in
00:10 55.9 °F 54.2 °F 29.97 in Calm     94% 0.00 in
00:15 55.9 °F 54.2 °F 29.97 in Calm     94% 0.00 in
00:20 55.9 °F 54.2 °F 29.97 in Calm     94% 0.00 in
00:25 55.8 °F 54.1 °F 29.98 in Calm     94% 0.00 in
00:30 55.7 °F 54.0 °F 29.98 in Calm     94% 0.00 in
00:35 55.8 °F 54.4 °F 29.98 in Calm     95% 0.00 in
00:40 55.8 °F 54.4 °F 29.98 in Calm     95% 0.00 in
00:45 55.7 °F 54.3 °F 29.98 in Calm     95% 0.00 in
00:50 55.5 °F 53.8 °F 29.98 in Calm   1.0 mph 94% 0.00 in
00:55 55.4 °F 53.7 °F 29.98 in Calm   1.0 mph 94% 0.00 in
01:00 55.3 °F 53.6 °F 29.98 in Calm     94% 0.00 in
01:05 55.1 °F 53.7 °F 29.98 in Calm     95% 0.00 in
01:10 55.1 °F 53.7 °F 29.98 in Calm     95% 0.00 in
01:15 55.0 °F 53.6 °F 29.98 in Calm     95% 0.00 in
01:20 55.0 °F 53.6 °F 29.98 in Calm     95% 0.00 in
01:25 55.1 °F 53.7 °F 29.98 in Calm     95% 0.00 in
01:30 55.0 °F 53.6 °F 29.98 in Calm     95% 0.00 in
01:35 54.9 °F 53.5 °F 29.98 in Calm     95% 0.00 in
01:40 54.8 °F 53.4 °F 29.98 in Calm     95% 0.00 in
01:45 54.6 °F 53.2 °F 29.98 in Calm     95% 0.00 in
01:50 54.4 °F 53.0 °F 29.98 in Calm     95% 0.00 in
01:55 54.5 °F 53.1 °F 29.97 in Calm     95% 0.00 in
02:00 54.6 °F 53.2 °F 29.97 in Calm     95% 0.00 in
02:05 54.8 °F 53.4 °F 29.97 in Calm     95% 0.00 in
02:10 54.8 °F 53.4 °F 29.97 in Calm     95% 0.00 in
02:15 54.8 °F 53.4 °F 29.98 in Calm     95% 0.00 in
02:20 54.8 °F 53.4 °F 29.97 in Calm     95% 0.00 in
02:25 54.6 °F 53.2 °F 29.97 in Calm     95% 0.00 in
02:30 54.5 °F 53.1 °F 29.97 in Calm     95% 0.00 in
02:35 54.5 °F 53.1 °F 29.97 in Calm     95% 0.00 in
02:40 54.4 °F 53.0 °F 29.97 in Calm     95% 0.00 in
02:45 54.3 °F 52.9 °F 29.98 in Calm     95% 0.00 in
02:50 54.2 °F 52.8 °F 29.97 in Calm     95% 0.00 in
02:55 54.2 °F 52.8 °F 29.98 in Calm     95% 0.00 in
03:00 54.2 °F 52.8 °F 29.98 in Calm     95% 0.00 in
03:05 54.1 °F 52.7 °F 29.97 in Calm     95% 0.00 in
03:10 54.1 °F 52.7 °F 29.97 in Calm     95% 0.00 in
03:15 54.2 °F 52.8 °F 29.97 in Calm     95% 0.00 in
03:20 54.4 °F 53.0 °F 29.97 in Calm     95% 0.00 in
03:25 54.4 °F 53.0 °F 29.97 in Calm     95% 0.00 in
03:30 54.3 °F 52.9 °F 29.97 in Calm     95% 0.00 in
03:35 54.2 °F 52.8 °F 29.97 in Calm     95% 0.00 in
03:45 54.2 °F 52.8 °F 29.98 in Calm     95% 0.00 in
03:50 54.1 °F 52.7 °F 29.98 in Calm     95% 0.00 in
03:55 54.2 °F 52.8 °F 29.98 in Calm     95% 0.00 in
04:00 54.1 °F 52.7 °F 29.98 in Calm     95% 0.00 in
04:05 54.2 °F 53.1 °F 29.98 in Calm     96% 0.00 in
04:10 54.2 °F 53.1 °F 29.98 in Calm     96% 0.00 in
04:15 54.1 °F 53.0 °F 29.98 in Calm     96% 0.00 in
04:20 54.0 °F 52.9 °F 29.98 in Calm     96% 0.00 in
04:25 53.9 °F 52.8 °F 29.98 in Calm     96% 0.00 in
04:30 53.8 °F 52.4 °F 29.99 in Calm     95% 0.00 in
04:35 53.7 °F 52.3 °F 29.99 in Calm     95% 0.00 in
04:40 53.7 °F 52.3 °F 29.99 in Calm     95% 0.00 in
04:50 53.7 °F 52.3 °F 30.00 in Calm     95% 0.00 in
04:55 53.8 °F 52.7 °F 30.00 in Calm     96% 0.00 in
05:00 53.7 °F 52.6 °F 30.00 in Calm     96% 0.00 in
05:05 53.5 °F 52.4 °F 30.00 in Calm     96% 0.00 in
05:15 53.4 °F 52.3 °F 30.01 in Calm     96% 0.00 in
05:20 53.5 °F 52.4 °F 30.01 in Calm     96% 0.00 in
05:25 53.5 °F 52.4 °F 30.01 in Calm     96% 0.00 in
05:30 53.5 °F 52.4 °F 30.01 in Calm     96% 0.00 in
05:35 53.6 °F 52.5 °F 30.01 in Calm     96% 0.00 in
05:40 53.7 °F 52.6 °F 30.01 in Calm     96% 0.00 in
05:45 53.7 °F 52.6 °F 30.01 in Calm     96% 0.00 in
05:50 53.7 °F 52.6 °F 30.01 in Calm     96% 0.00 in
05:55 53.8 °F 52.7 °F 30.01 in Calm     96% 0.00 in
06:00 53.8 °F 52.7 °F 30.01 in Calm     96% 0.00 in
06:05 53.9 °F 52.8 °F 30.01 in Calm     96% 0.00 in
06:10 53.9 °F 52.8 °F 30.01 in Calm     96% 0.00 in
06:20 54.2 °F 53.1 °F 30.01 in Calm     96% 0.00 in
06:25 54.3 °F 53.2 °F 30.01 in Calm     96% 0.00 in
06:30 54.5 °F 53.4 °F 30.01 in Calm     96% 0.00 in
06:35 54.9 °F 53.8 °F 30.01 in Calm     96% 0.00 in
06:40 55.0 °F 53.9 °F 30.02 in Calm     96% 0.00 in
06:50 55.5 °F 54.4 °F 30.02 in Calm     96% 0.00 in
06:55 55.6 °F 54.5 °F 30.02 in Calm     96% 0.00 in
07:00 55.8 °F 54.7 °F 30.02 in Calm     96% 0.00 in
07:05 56.3 °F 55.2 °F 30.02 in Calm     96% 0.00 in
07:10 56.8 °F 55.7 °F 30.02 in Calm     96% 0.00 in
07:15 57.3 °F 56.2 °F 30.03 in Calm     96% 0.00 in
07:20 57.9 °F 56.8 °F 30.03 in Calm     96% 0.00 in
07:30 59.0 °F 57.9 °F 30.02 in Calm     96% 0.00 in
07:35 59.4 °F 58.5 °F 30.02 in Calm     97% 0.00 in
07:40 59.9 °F 58.8 °F 30.02 in Calm     96% 0.00 in
07:45 60.2 °F 59.3 °F 30.02 in Calm     97% 0.00 in
07:50 60.6 °F 59.5 °F 30.02 in Calm   1.0 mph 96% 0.00 in
07:55 61.3 °F 60.4 °F 30.03 in Calm   1.0 mph 97% 0.00 in
08:00 61.7 °F 60.8 °F 30.03 in Calm   1.0 mph 97% 0.00 in
08:05 61.8 °F 60.9 °F 30.03 in Calm   1.0 mph 97% 0.00 in
08:10 62.2 °F 61.3 °F 30.03 in Calm   4.0 mph 97% 0.00 in
08:15 62.5 °F 61.6 °F 30.03 in SSW 1.0 mph 5.0 mph 97% 0.00 in
08:20 62.3 °F 61.4 °F 30.03 in Calm   5.0 mph 97% 0.00 in
08:30 63.5 °F 62.6 °F 30.03 in Calm   5.0 mph 97% 0.00 in
08:40 65.1 °F 63.0 °F 30.03 in SSW 1.0 mph 5.0 mph 93% 0.00 in
08:45 66.3 °F 63.9 °F 30.03 in Calm   4.0 mph 92% 0.00 in
08:50 67.6 °F 63.6 °F 30.02 in Calm   5.0 mph 87% 0.00 in
08:55 68.6 °F 62.9 °F 30.03 in SSW 1.0 mph 5.0 mph 82% 0.00 in
09:00 69.4 °F 62.6 °F 30.02 in SSW 1.0 mph 5.0 mph 79% 0.00 in
09:05 70.0 °F 63.6 °F 30.02 in Calm   6.0 mph 80% 0.00 in
09:10 70.6 °F 63.0 °F 30.03 in SW 1.0 mph 6.0 mph 77% 0.00 in
09:15 71.0 °F 64.2 °F 30.02 in Calm   5.0 mph 79% 0.00 in
09:20 71.0 °F 62.7 °F 30.02 in Calm   1.0 mph 75% 0.00 in
09:25 70.9 °F 62.6 °F 30.02 in Calm   1.0 mph 75% 0.00 in
09:30 71.2 °F 63.6 °F 30.02 in Calm   1.0 mph 77% 0.00 in
09:35 71.2 °F 63.3 °F 30.02 in Calm   1.0 mph 76% 0.00 in
09:40 71.4 °F 63.4 °F 30.02 in Calm   1.0 mph 76% 0.00 in
09:45 72.0 °F 62.9 °F 30.02 in SW 1.0 mph 5.0 mph 73% 0.00 in
09:50 72.9 °F 63.7 °F 30.02 in SW 1.0 mph 5.0 mph 73% 0.00 in
09:55 73.8 °F 63.0 °F 30.02 in Calm   5.0 mph 69% 0.00 in
10:00 74.9 °F 64.5 °F 30.02 in Calm   1.0 mph 70% 0.00 in
10:05 75.2 °F 63.5 °F 30.02 in Calm   5.0 mph 67% 0.00 in
10:10 75.4 °F 63.3 °F 30.01 in Calm   5.0 mph 66% 0.00 in
10:15 75.7 °F 63.1 °F 30.01 in Calm   4.0 mph 65% 0.00 in
10:20 75.6 °F 63.9 °F 30.01 in Calm   5.0 mph 67% 0.00 in
10:25 75.8 °F 64.1 °F 30.01 in Calm   5.0 mph 67% 0.00 in
10:30 76.2 °F 64.9 °F 30.01 in Calm   4.0 mph 68% 0.00 in
10:35 76.4 °F 64.6 °F 30.02 in Calm   4.0 mph 67% 0.00 in
10:40 76.8 °F 65.0 °F 30.02 in Calm   4.0 mph 67% 0.00 in
10:45 76.8 °F 64.6 °F 30.02 in Calm   6.0 mph 66% 0.00 in
10:50 77.1 °F 64.4 °F 30.01 in SW 1.0 mph 6.0 mph 65% 0.00 in
10:55 77.2 °F 63.6 °F 30.01 in SW 2.0 mph 5.0 mph 63% 0.00 in
11:00 77.5 °F 66.5 °F 30.02 in Calm   5.0 mph 69% 0.00 in
11:05 77.9 °F 66.1 °F 30.02 in SSW 2.0 mph 7.0 mph 67% 0.00 in
11:15 78.7 °F 64.6 °F 30.01 in SSW 2.0 mph 6.0 mph 62% 0.00 in
11:20 78.4 °F 65.2 °F 30.01 in WSW 2.0 mph 6.0 mph 64% 0.00 in
11:25 78.5 °F 65.8 °F 30.01 in WNW 1.0 mph 6.0 mph 65% 0.00 in
11:30 78.3 °F 64.7 °F 30.01 in WNW 4.0 mph 7.0 mph 63% 0.00 in
11:35 78.0 °F 64.4 °F 30.01 in WNW 1.0 mph 7.0 mph 63% 0.00 in
11:40 78.2 °F 65.5 °F 30.00 in Calm   4.0 mph 65% 0.00 in
11:45 78.7 °F 66.0 °F 30.00 in Calm   5.0 mph 65% 0.00 in
11:55 79.1 °F 64.5 °F 30.00 in Calm   5.0 mph 61% 0.00 in
12:00 78.7 °F 64.1 °F 30.00 in Calm   1.0 mph 61% 0.00 in
12:05 79.1 °F 67.2 °F 30.00 in West 1.0 mph 5.0 mph 67% 0.00 in
12:10 78.7 °F 64.6 °F 30.00 in Calm   7.0 mph 62% 0.00 in
12:15 78.7 °F 66.4 °F 29.99 in Calm   7.0 mph 66% 0.00 in
12:20 78.9 °F 65.3 °F 30.00 in Calm   1.0 mph 63% 0.00 in
12:25 78.4 °F 65.2 °F 30.00 in Calm   1.0 mph 64% 0.00 in
12:30 78.7 °F 67.7 °F 30.00 in Calm   1.0 mph 69% 0.00 in
12:35 79.8 °F 65.6 °F 30.00 in Calm   5.0 mph 62% 0.00 in
12:40 80.2 °F 65.1 °F 30.00 in SSW 4.0 mph 7.0 mph 60% 0.00 in
12:45 80.4 °F 66.7 °F 30.00 in West 3.0 mph 7.0 mph 63% 0.00 in
12:50 80.8 °F 65.6 °F 30.00 in SSW 1.0 mph 6.0 mph 60% 0.00 in
12:55 80.9 °F 65.2 °F 29.99 in South 1.0 mph 5.0 mph 59% 0.00 in
13:00 81.2 °F 64.5 °F 29.99 in Calm   5.0 mph 57% 0.00 in
13:05 81.2 °F 67.0 °F 29.99 in Calm   6.0 mph 62% 0.00 in
13:10 80.8 °F 64.7 °F 29.99 in SW 1.0 mph 6.0 mph 58% 0.00 in
13:15 80.8 °F 67.5 °F 29.99 in SSE 2.0 mph 5.0 mph 64% 0.00 in
13:20 81.1 °F 65.9 °F 29.98 in Calm   5.0 mph 60% 0.00 in
13:25 81.3 °F 63.6 °F 29.98 in Calm   1.0 mph 55% 0.00 in
13:30 81.6 °F 65.4 °F 29.98 in Calm   1.0 mph 58% 0.00 in
13:35 81.7 °F 64.5 °F 29.98 in Calm   4.0 mph 56% 0.00 in
13:40 82.1 °F 65.9 °F 29.98 in SW 1.0 mph 5.0 mph 58% 0.00 in
13:45 82.2 °F 62.8 °F 29.98 in ESE 1.0 mph 5.0 mph 52% 0.00 in
13:50 82.3 °F 64.5 °F 29.97 in Calm   7.0 mph 55% 0.00 in
13:55 82.7 °F 60.4 °F 29.97 in WNW 3.0 mph 7.0 mph 47% 0.00 in
14:00 82.4 °F 60.2 °F 29.97 in SW 4.0 mph 6.0 mph 47% 0.00 in
14:05 82.4 °F 63.0 °F 29.97 in WSW 1.0 mph 6.0 mph 52% 0.00 in
14:10 82.7 °F 61.0 °F 29.97 in Calm   5.0 mph 48% 0.00 in
14:15 83.0 °F 62.5 °F 29.97 in Calm   5.0 mph 50% 0.00 in
14:20 83.3 °F 61.0 °F 29.96 in West 2.0 mph 6.0 mph 47% 0.00 in
14:25 83.7 °F 60.8 °F 29.96 in SSW 2.0 mph 7.0 mph 46% 0.00 in
14:30 83.7 °F 63.1 °F 29.96 in Calm   7.0 mph 50% 0.00 in
14:35 84.0 °F 60.4 °F 29.96 in South 1.0 mph 5.0 mph 45% 0.00 in
14:40 84.2 °F 60.0 °F 29.96 in Calm   5.0 mph 44% 0.00 in
14:45 84.0 °F 61.6 °F 29.96 in Calm   5.0 mph 47% 0.00 in
14:50 83.6 °F 58.8 °F 29.96 in SW 3.0 mph 7.0 mph 43% 0.00 in
15:00 83.6 °F 61.3 °F 29.95 in Calm   4.0 mph 47% 0.00 in
15:05 83.8 °F 55.5 °F 29.96 in Calm   2.0 mph 38% 0.00 in
15:10 83.5 °F 61.8 °F 29.95 in Calm   5.0 mph 48% 0.00 in
15:15 83.7 °F 60.8 °F 29.96 in SW 3.0 mph 6.0 mph 46% 0.00 in
15:20 84.1 °F 62.3 °F 29.96 in SW 1.0 mph 6.0 mph 48% 0.00 in
15:30 84.4 °F 62.0 °F 29.96 in Calm   5.0 mph 47% 0.00 in
15:35 84.1 °F 59.9 °F 29.95 in Calm   4.0 mph 44% 0.00 in
15:40 84.1 °F 61.1 °F 29.95 in SW 1.0 mph 5.0 mph 46% 0.00 in
15:45 83.8 °F 59.6 °F 29.95 in Calm   5.0 mph 44% 0.00 in
15:50 83.7 °F 60.1 °F 29.95 in Calm   6.0 mph 45% 0.00 in
15:55 83.5 °F 61.2 °F 29.95 in Calm   6.0 mph 47% 0.00 in
16:05 83.4 °F 61.7 °F 29.95 in Calm   6.0 mph 48% 0.00 in
16:10 83.5 °F 62.4 °F 29.94 in SW 1.0 mph 5.0 mph 49% 0.00 in
16:15 83.6 °F 61.9 °F 29.94 in SW 1.0 mph 6.0 mph 48% 0.00 in
16:20 83.8 °F 60.8 °F 29.94 in SW 1.0 mph 6.0 mph 46% 0.00 in
16:25 83.9 °F 63.9 °F 29.94 in SW 2.0 mph 9.0 mph 51% 0.00 in
16:30 83.8 °F 63.8 °F 29.94 in SW 1.0 mph 9.0 mph 51% 0.00 in
16:35 83.9 °F 61.5 °F 29.94 in Calm   5.0 mph 47% 0.00 in
16:40 83.8 °F 60.8 °F 29.94 in South 1.0 mph 4.0 mph 46% 0.00 in
16:45 83.8 °F 61.5 °F 29.94 in Calm   3.0 mph 47% 0.00 in
16:50 84.0 °F 59.8 °F 29.93 in Calm   3.0 mph 44% 0.00 in
16:55 84.3 °F 61.9 °F 29.93 in Calm   4.0 mph 47% 0.00 in
17:00 84.0 °F 60.4 °F 29.93 in SSW 2.0 mph 5.0 mph 45% 0.00 in
17:05 83.6 °F 60.0 °F 29.93 in Calm   6.0 mph 45% 0.00 in
17:10 83.4 °F 61.1 °F 29.93 in SW 1.0 mph 6.0 mph 47% 0.00 in
17:15 83.2 °F 58.4 °F 29.93 in Calm   6.0 mph 43% 0.00 in
17:20 83.4 °F 59.2 °F 29.93 in West 1.0 mph 7.0 mph 44% 0.00 in
17:25 83.6 °F 58.1 °F 29.93 in SSW 1.0 mph 7.0 mph 42% 0.00 in
17:30 83.5 °F 58.0 °F 29.93 in WSW 1.0 mph 7.0 mph 42% 0.00 in
17:35 83.3 °F 59.1 °F 29.93 in Calm   7.0 mph 44% 0.00 in
17:45 83.2 °F 58.4 °F 29.93 in Calm   6.0 mph 43% 0.00 in
17:50 82.9 °F 57.5 °F 29.93 in SW 1.0 mph 6.0 mph 42% 0.00 in
17:55 82.8 °F 58.7 °F 29.93 in Calm   6.0 mph 44% 0.00 in
18:00 82.7 °F 58.6 °F 29.94 in Calm   6.0 mph 44% 0.00 in
18:05 82.5 °F 57.8 °F 29.94 in Calm   6.0 mph 43% 0.00 in
18:10 82.2 °F 58.1 °F 29.93 in Calm   3.0 mph 44% 0.00 in
18:15 82.1 °F 58.1 °F 29.93 in Calm   3.0 mph 44% 0.00 in
18:20 82.3 °F 60.7 °F 29.93 in Calm   2.0 mph 48% 0.00 in
18:25 82.4 °F 59.0 °F 29.93 in SSW 3.0 mph 8.0 mph 45% 0.00 in
18:30 82.1 °F 59.3 °F 29.93 in SW 1.0 mph 8.0 mph 46% 0.00 in
18:35 81.6 °F 58.2 °F 29.94 in SSW 1.0 mph 6.0 mph 45% 0.00 in
18:40 81.3 °F 59.8 °F 29.94 in SSW 1.0 mph 6.0 mph 48% 0.00 in
18:45 80.8 °F 58.1 °F 29.94 in SSW 1.0 mph 6.0 mph 46% 0.00 in
18:50 80.5 °F 57.8 °F 29.93 in SSW 1.0 mph 6.0 mph 46% 0.00 in
18:55 80.1 °F 58.7 °F 29.93 in SW 1.0 mph 5.0 mph 48% 0.00 in
19:00 79.7 °F 60.0 °F 29.93 in Calm   5.0 mph 51% 0.00 in
19:05 78.9 °F 58.7 °F 29.92 in SSW 1.0 mph 4.0 mph 50% 0.00 in
19:10 77.9 °F 59.4 °F 29.92 in Calm   4.0 mph 53% 0.00 in
19:15 76.9 °F 59.0 °F 29.92 in SSW 1.0 mph 3.0 mph 54% 0.00 in
19:25 75.4 °F 59.6 °F 29.92 in Calm   1.0 mph 58% 0.00 in
19:30 74.6 °F 59.8 °F 29.92 in Calm     60% 0.00 in
19:35 74.2 °F 59.9 °F 29.92 in Calm   3.0 mph 61% 0.00 in
19:40 74.1 °F 60.7 °F 29.92 in Calm   3.0 mph 63% 0.00 in
19:45 73.9 °F 60.5 °F 29.91 in Calm   1.0 mph 63% 0.00 in
19:50 73.8 °F 60.4 °F 29.91 in Calm   1.0 mph 63% 0.00 in
19:55 73.5 °F 59.7 °F 29.92 in Calm   3.0 mph 62% 0.00 in
20:00 73.1 °F 60.6 °F 29.91 in Calm   4.0 mph 65% 0.00 in
20:05 72.7 °F 60.3 °F 29.91 in Calm   4.0 mph 65% 0.00 in
20:10 72.2 °F 59.8 °F 29.92 in Calm   1.0 mph 65% 0.00 in
20:15 71.8 °F 59.4 °F 29.92 in Calm   2.0 mph 65% 0.00 in
20:20 71.3 °F 59.4 °F 29.92 in Calm   2.0 mph 66% 0.00 in
20:25 70.7 °F 59.2 °F 29.92 in Calm   1.0 mph 67% 0.00 in
20:30 70.0 °F 59.4 °F 29.92 in Calm   1.0 mph 69% 0.00 in
20:35 69.2 °F 58.6 °F 29.92 in Calm     69% 0.00 in
20:40 68.5 °F 58.3 °F 29.92 in Calm   1.0 mph 70% 0.00 in
20:45 68.1 °F 58.7 °F 29.92 in Calm   1.0 mph 72% 0.00 in
20:50 67.4 °F 58.1 °F 29.92 in Calm   1.0 mph 72% 0.00 in
21:00 66.5 °F 58.0 °F 29.92 in Calm     74% 0.00 in
21:05 66.1 °F 58.0 °F 29.92 in Calm   1.0 mph 75% 0.00 in
21:10 65.8 °F 57.7 °F 29.92 in Calm   1.0 mph 75% 0.00 in
21:20 65.4 °F 57.6 °F 29.93 in SSW 1.0 mph 3.0 mph 76% 0.00 in
21:25 65.4 °F 58.0 °F 29.93 in Calm   3.0 mph 77% 0.00 in
21:30 65.2 °F 57.8 °F 29.93 in Calm   1.0 mph 77% 0.00 in
21:35 65.1 °F 57.7 °F 29.93 in Calm   1.0 mph 77% 0.00 in
21:40 65.0 °F 57.6 °F 29.93 in Calm   1.0 mph 77% 0.00 in
21:45 65.1 °F 57.7 °F 29.93 in Calm   3.0 mph 77% 0.00 in
21:50 65.2 °F 57.5 °F 29.92 in SSW 1.0 mph 3.0 mph 76% 0.00 in
21:55 65.5 °F 58.1 °F 29.92 in Calm   4.0 mph 77% 0.00 in
22:00 65.6 °F 57.8 °F 29.93 in Calm   4.0 mph 76% 0.00 in
22:05 65.6 °F 57.8 °F 29.92 in SSW 1.0 mph 4.0 mph 76% 0.00 in
22:10 65.7 °F 57.9 °F 29.92 in Calm   4.0 mph 76% 0.00 in
22:15 65.7 °F 57.6 °F 29.92 in SSW 1.0 mph 4.0 mph 75% 0.00 in
22:25 65.8 °F 57.7 °F 29.92 in Calm   6.0 mph 75% 0.00 in
22:30 65.8 °F 57.7 °F 29.93 in Calm   4.0 mph 75% 0.00 in
22:40 65.7 °F 57.6 °F 29.92 in SW 1.0 mph 5.0 mph 75% 0.00 in
22:45 65.7 °F 57.6 °F 29.92 in SSW 1.0 mph 5.0 mph 75% 0.00 in
22:50 65.7 °F 57.2 °F 29.93 in SSW 1.0 mph 4.0 mph 74% 0.00 in
22:55 65.8 °F 57.3 °F 29.93 in Calm   4.0 mph 74% 0.00 in
23:00 65.8 °F 57.3 °F 29.92 in SSW 1.0 mph 5.0 mph 74% 0.00 in
23:05 65.8 °F 57.3 °F 29.92 in SSW 1.0 mph 5.0 mph 74% 0.00 in
23:10 65.8 °F 57.3 °F 29.92 in Calm   3.0 mph 74% 0.00 in
23:15 66.0 °F 57.5 °F 29.92 in Calm   2.0 mph 74% 0.00 in
23:20 66.1 °F 57.2 °F 29.93 in SSW 1.0 mph 3.0 mph 73% 0.00 in
23:25 66.2 °F 57.7 °F 29.93 in Calm   5.0 mph 74% 0.00 in
23:30 66.3 °F 57.8 °F 29.92 in SSW 1.0 mph 5.0 mph 74% 0.00 in
23:35 66.6 °F 57.7 °F 29.92 in Calm   5.0 mph 73% 0.00 in
23:40 66.8 °F 57.5 °F 29.93 in Calm   5.0 mph 72% 0.00 in
23:45 67.1 °F 58.2 °F 29.92 in SSW 1.0 mph 4.0 mph 73% 0.00 in
23:50 67.2 °F 57.9 °F 29.92 in Calm   3.0 mph 72% 0.00 in
23:55 67.2 °F 57.5 °F 29.92 in Calm   4.0 mph 71% 0.00 in
Westford Weather
Compliments of Weather Underground

 
 
Current Radar Loop:

Copyright © WestfordWeather.net 2007-2014. All rights reserved.